createdAt,value
2023-05-14T00:02:26.770Z,12.40
2023-05-14T00:04:57.193Z,12.37
2023-05-14T00:07:30.998Z,12.34
2023-05-14T00:10:01.944Z,12.32
2023-05-14T00:12:34.973Z,12.32
2023-05-14T00:15:05.842Z,12.31
2023-05-14T00:17:36.304Z,12.29
2023-05-14T00:20:07.863Z,12.29
2023-05-14T00:22:39.508Z,12.30
2023-05-14T00:25:11.674Z,12.29
2023-05-14T00:27:44.616Z,12.26
2023-05-14T00:30:15.749Z,12.22
2023-05-14T00:32:46.115Z,12.21
2023-05-14T00:35:16.513Z,12.19
2023-05-14T00:37:46.925Z,12.17
2023-05-14T00:40:17.393Z,12.14
2023-05-14T00:42:51.280Z,12.11
2023-05-14T00:45:21.821Z,12.09
2023-05-14T00:47:52.715Z,12.07
2023-05-14T00:50:24.510Z,12.03
2023-05-14T00:52:55.419Z,12.01
2023-05-14T00:55:26.185Z,11.98
2023-05-14T00:58:02.185Z,11.96
2023-05-14T01:00:32.897Z,11.95
2023-05-14T01:03:03.852Z,11.90
2023-05-14T01:05:59.159Z,11.87
2023-05-14T01:08:39.640Z,11.87
2023-05-14T01:11:15.775Z,11.85
2023-05-14T01:14:00.319Z,11.81
2023-05-14T01:16:32.459Z,11.76
2023-05-14T01:19:05.106Z,11.72
2023-05-14T01:21:46.438Z,11.71
2023-05-14T01:24:17.020Z,11.68
2023-05-14T01:26:47.633Z,11.66
2023-05-14T01:29:26.496Z,11.61
2023-05-14T01:32:00.781Z,11.61
2023-05-14T01:34:33.545Z,11.59
2023-05-14T01:37:08.285Z,11.57
2023-05-14T01:39:40.854Z,11.52
2023-05-14T01:42:12.363Z,11.51
2023-05-14T01:44:42.916Z,11.48
2023-05-14T01:47:13.404Z,11.46
2023-05-14T01:49:43.778Z,11.44
2023-05-14T01:52:16.752Z,11.44
2023-05-14T01:54:47.055Z,11.40
2023-05-14T01:57:17.632Z,11.37
2023-05-14T01:59:48.213Z,11.36
2023-05-14T02:02:18.582Z,11.34
2023-05-14T02:04:49.281Z,11.30
2023-05-14T02:07:22.324Z,11.27
2023-05-14T02:09:52.762Z,11.24
2023-05-14T02:12:23.713Z,11.22
2023-05-14T02:14:54.323Z,11.21
2023-05-14T02:17:25.095Z,11.16
2023-05-14T02:19:56.017Z,11.15
2023-05-14T02:22:29.141Z,11.13
2023-05-14T02:24:59.606Z,11.11
2023-05-14T02:27:30.088Z,11.08
2023-05-14T02:30:01.034Z,11.06
2023-05-14T02:32:31.651Z,11.07
2023-05-14T02:35:02.508Z,11.03
2023-05-14T02:37:35.559Z,11.01
2023-05-14T02:40:06.117Z,11.00
2023-05-14T02:42:37.518Z,10.98
2023-05-14T02:45:09.830Z,10.98
2023-05-14T02:47:40.177Z,10.95
2023-05-14T02:50:12.104Z,10.92
2023-05-14T02:52:45.067Z,10.92
2023-05-14T02:55:15.916Z,10.89
2023-05-14T02:57:46.892Z,10.91
2023-05-14T03:00:18.208Z,10.87
2023-05-14T03:02:49.531Z,10.88
2023-05-14T03:05:20.666Z,10.88
2023-05-14T03:07:54.181Z,10.88
2023-05-14T03:10:24.814Z,10.87
2023-05-14T03:12:55.780Z,10.83
2023-05-14T03:15:26.333Z,10.81
2023-05-14T03:17:56.930Z,10.82
2023-05-14T03:20:28.146Z,10.81
2023-05-14T03:23:01.194Z,10.78
2023-05-14T03:25:31.558Z,10.77
2023-05-14T03:28:02.051Z,10.75
2023-05-14T03:30:32.604Z,10.70
2023-05-14T03:33:03.346Z,10.68
2023-05-14T03:35:33.812Z,10.68
2023-05-14T03:38:06.766Z,10.65
2023-05-14T03:40:38.450Z,10.65
2023-05-14T03:43:08.944Z,10.66
2023-05-14T03:45:40.292Z,10.65
2023-05-14T03:48:10.982Z,10.64
2023-05-14T03:50:42.125Z,10.64
2023-05-14T03:53:15.217Z,10.64
2023-05-14T03:55:45.555Z,10.61
2023-05-14T03:58:17.590Z,10.62
2023-05-14T04:00:48.058Z,10.60
2023-05-14T04:03:18.585Z,10.60
2023-05-14T04:05:49.221Z,10.58
2023-05-14T04:08:22.139Z,10.58
2023-05-14T04:10:53.710Z,10.55
2023-05-14T04:13:26.564Z,10.56
2023-05-14T04:15:57.913Z,10.57
2023-05-14T04:18:28.833Z,10.56
2023-05-14T04:20:59.439Z,10.57
2023-05-14T04:23:32.620Z,10.58
2023-05-14T04:26:03.759Z,10.56
2023-05-14T04:28:34.176Z,10.56
2023-05-14T04:31:04.626Z,10.57
2023-05-14T04:33:35.178Z,10.58
2023-05-14T04:36:05.847Z,10.60
2023-05-14T04:38:38.822Z,10.59
2023-05-14T04:41:09.320Z,10.60
2023-05-14T04:43:39.596Z,10.57
2023-05-14T04:46:09.996Z,10.59
2023-05-14T04:48:40.454Z,10.58
2023-05-14T04:51:11.092Z,10.60
2023-05-14T04:53:44.165Z,10.60
2023-05-14T04:56:14.660Z,10.59
2023-05-14T04:58:45.029Z,10.59
2023-05-14T05:01:15.519Z,10.57
2023-05-14T05:03:46.005Z,10.59
2023-05-14T05:06:16.458Z,10.56
2023-05-14T05:08:49.660Z,10.55
2023-05-14T05:11:19.985Z,10.61
2023-05-14T05:13:50.521Z,10.60
2023-05-14T05:16:20.930Z,10.64
2023-05-14T05:18:51.606Z,10.57
2023-05-14T05:21:21.929Z,10.64
2023-05-14T05:23:55.044Z,10.61
2023-05-14T05:26:26.896Z,10.59
2023-05-14T05:28:57.301Z,10.59
2023-05-14T05:31:27.678Z,10.61
2023-05-14T05:33:58.063Z,10.65
2023-05-14T05:36:28.887Z,10.68
2023-05-14T05:39:02.439Z,10.73
2023-05-14T05:41:32.939Z,10.72
2023-05-14T05:44:03.323Z,10.73
2023-05-14T05:46:33.748Z,10.70
2023-05-14T05:49:04.281Z,10.71
2023-05-14T05:51:34.649Z,10.74
2023-05-14T05:54:07.754Z,10.73
2023-05-14T05:56:38.275Z,10.71
2023-05-14T05:59:08.874Z,10.76
2023-05-14T06:01:40.876Z,10.76
2023-05-14T06:04:11.253Z,10.82
2023-05-14T06:06:41.635Z,10.82
2023-05-14T06:09:14.625Z,10.83
2023-05-14T06:11:45.181Z,10.84
2023-05-14T06:14:15.781Z,10.87
2023-05-14T06:16:46.684Z,10.88
2023-05-14T06:19:17.254Z,10.90
2023-05-14T06:21:48.166Z,10.89
2023-05-14T06:24:21.494Z,10.97
2023-05-14T06:26:52.184Z,11.04
2023-05-14T06:29:22.653Z,11.09
2023-05-14T06:31:53.033Z,11.05
2023-05-14T06:34:23.460Z,11.10
2023-05-14T06:36:53.806Z,11.07
2023-05-14T06:39:26.868Z,11.06
2023-05-14T06:41:57.243Z,11.07
2023-05-14T06:44:27.623Z,11.14
2023-05-14T06:46:58.156Z,11.20
2023-05-14T06:49:28.532Z,11.25
2023-05-14T06:51:58.887Z,11.28
2023-05-14T06:54:32.069Z,11.31
2023-05-14T06:57:02.400Z,11.36
2023-05-14T06:59:33.456Z,11.37
2023-05-14T07:02:04.208Z,11.32
2023-05-14T07:04:34.795Z,11.34
2023-05-14T07:07:05.869Z,11.34
2023-05-14T07:09:38.935Z,11.31
2023-05-14T07:12:11.324Z,11.40
2023-05-14T07:14:41.716Z,11.42
2023-05-14T07:17:12.183Z,11.47
2023-05-14T07:19:42.664Z,11.57
2023-05-14T07:22:13.300Z,11.61
2023-05-14T07:24:46.310Z,11.67
2023-05-14T07:27:17.140Z,11.76
2023-05-14T07:29:47.794Z,11.79
2023-05-14T07:32:18.073Z,11.85
2023-05-14T07:34:48.974Z,11.86
2023-05-14T07:37:19.673Z,11.84
2023-05-14T07:39:53.229Z,11.86
2023-05-14T07:42:35.028Z,11.92
2023-05-14T07:45:07.468Z,12.03
2023-05-14T07:47:38.110Z,12.15
2023-05-14T07:50:10.917Z,12.22
2023-05-14T07:52:41.397Z,12.39
2023-05-14T07:55:15.720Z,12.56
2023-05-14T07:57:46.302Z,12.61
2023-05-14T08:00:18.238Z,12.61
2023-05-14T08:02:49.303Z,12.71
2023-05-14T08:05:20.650Z,12.73
2023-05-14T08:07:51.273Z,12.87
2023-05-14T08:10:24.593Z,12.91
2023-05-14T08:12:55.448Z,12.90
2023-05-14T08:15:27.936Z,12.85
2023-05-14T08:18:03.428Z,12.86
2023-05-14T08:20:34.184Z,12.98
2023-05-14T08:23:04.826Z,13.03
2023-05-14T08:25:38.000Z,13.06
2023-05-14T08:28:08.634Z,13.07
2023-05-14T08:30:39.048Z,13.17
2023-05-14T08:33:09.699Z,13.20
2023-05-14T08:35:40.084Z,13.27
2023-05-14T08:38:10.775Z,13.35
2023-05-14T08:40:44.448Z,13.44
2023-05-14T08:43:17.402Z,13.58
2023-05-14T08:45:48.407Z,13.63
2023-05-14T08:48:20.515Z,13.76
2023-05-14T08:50:51.132Z,13.87
2023-05-14T08:53:21.597Z,13.82
2023-05-14T08:55:54.894Z,13.95
2023-05-14T08:58:25.942Z,13.91
2023-05-14T09:00:57.640Z,13.94
2023-05-14T09:03:28.246Z,14.07
2023-05-14T09:06:00.297Z,14.04
2023-05-14T09:08:30.866Z,14.12
2023-05-14T09:11:03.809Z,14.14
2023-05-14T09:13:34.236Z,14.24
2023-05-14T09:16:05.783Z,14.36
2023-05-14T09:18:38.800Z,14.44
2023-05-14T09:21:11.349Z,14.47
2023-05-14T09:23:46.104Z,14.55
2023-05-14T09:26:20.042Z,14.50
2023-05-14T09:28:50.615Z,14.65
2023-05-14T09:31:21.004Z,14.63
2023-05-14T09:33:54.136Z,14.59
2023-05-14T09:36:25.213Z,14.64
2023-05-14T09:38:55.616Z,14.75
2023-05-14T09:41:28.861Z,14.81
2023-05-14T09:43:59.253Z,14.84
2023-05-14T09:46:31.582Z,14.95
2023-05-14T09:49:02.022Z,15.10
2023-05-14T09:51:34.451Z,15.06
2023-05-14T09:54:07.197Z,15.05
2023-05-14T09:56:40.922Z,15.21
2023-05-14T09:59:11.389Z,15.28
2023-05-14T10:01:42.283Z,15.20
2023-05-14T10:04:14.270Z,15.32
2023-05-14T10:06:49.939Z,15.37
2023-05-14T10:09:23.377Z,15.38
2023-05-14T10:12:01.766Z,15.56
2023-05-14T10:14:41.225Z,15.61
2023-05-14T10:17:18.586Z,15.65
2023-05-14T10:19:56.093Z,15.76
2023-05-14T10:22:30.841Z,15.93
2023-05-14T10:25:01.044Z,15.99
2023-05-14T10:27:34.413Z,16.10
2023-05-14T10:30:14.657Z,16.19
2023-05-14T10:32:45.148Z,16.24
2023-05-14T10:35:25.609Z,16.29
2023-05-14T10:37:56.570Z,16.43
2023-05-14T10:40:27.513Z,16.52
2023-05-14T10:43:03.061Z,16.55
2023-05-14T10:45:34.573Z,16.59
2023-05-14T10:48:05.367Z,16.56
2023-05-14T10:50:35.825Z,16.48
2023-05-14T10:53:06.539Z,16.47
2023-05-14T10:55:37.329Z,16.51
2023-05-14T10:58:10.624Z,16.43
2023-05-14T11:00:42.084Z,16.46
2023-05-14T11:03:14.124Z,16.66
2023-05-14T11:05:44.538Z,16.81
2023-05-14T11:08:15.824Z,16.97
2023-05-14T11:10:47.254Z,17.15
2023-05-14T11:13:22.178Z,17.28
2023-05-14T11:15:53.709Z,17.30
2023-05-14T11:18:31.257Z,17.28
2023-05-14T11:21:02.606Z,17.34
2023-05-14T11:23:33.134Z,17.34
2023-05-14T11:26:03.622Z,17.38
2023-05-14T11:28:37.384Z,17.33
2023-05-14T11:31:07.990Z,17.24
2023-05-14T11:33:39.376Z,17.25
2023-05-14T11:36:10.974Z,17.26
2023-05-14T11:38:51.605Z,17.26
2023-05-14T11:41:23.496Z,17.33
2023-05-14T11:43:56.698Z,17.50
2023-05-14T11:46:28.685Z,17.53
2023-05-14T11:48:59.055Z,17.49
2023-05-14T11:51:29.438Z,17.47
2023-05-14T11:53:59.933Z,17.56
2023-05-14T11:56:30.417Z,17.63
2023-05-14T11:59:03.401Z,17.73
2023-05-14T12:01:40.037Z,17.71
2023-05-14T12:04:10.744Z,17.68
2023-05-14T12:06:42.650Z,17.71
2023-05-14T12:09:16.592Z,17.68
2023-05-14T12:11:47.639Z,17.60
2023-05-14T12:14:23.380Z,17.69
2023-05-14T12:16:54.401Z,17.74
2023-05-14T12:19:26.075Z,17.79
2023-05-14T12:21:56.768Z,18.04
2023-05-14T12:24:29.086Z,18.32
2023-05-14T12:27:00.666Z,18.56
2023-05-14T12:29:33.954Z,18.81
2023-05-14T12:32:06.126Z,19.04
2023-05-14T12:34:37.641Z,19.24
2023-05-14T12:37:09.281Z,19.70
2023-05-14T12:39:40.089Z,19.84
2023-05-14T12:42:10.982Z,19.76
2023-05-14T12:44:43.992Z,19.71
2023-05-14T12:47:14.395Z,19.99
2023-05-14T12:49:44.757Z,20.18
2023-05-14T12:54:48.419Z,20.11
2023-05-14T12:57:18.964Z,19.92
2023-05-14T12:59:52.085Z,19.87
2023-05-14T13:02:22.547Z,19.73
2023-05-14T13:04:53.202Z,19.64
2023-05-14T13:07:23.563Z,19.88
2023-05-14T13:09:53.919Z,20.31
2023-05-14T13:12:24.337Z,20.60
2023-05-14T13:14:57.312Z,20.55
2023-05-14T13:17:27.867Z,20.28
2023-05-14T13:19:58.442Z,19.91
2023-05-14T13:22:28.984Z,19.85
2023-05-14T13:24:59.402Z,19.64
2023-05-14T13:27:30.563Z,19.59
2023-05-14T13:30:04.335Z,19.48
2023-05-14T13:32:34.938Z,19.41
2023-05-14T13:35:05.538Z,19.36
2023-05-14T13:37:35.912Z,19.32
2023-05-14T13:40:07.647Z,19.36
2023-05-14T13:42:39.937Z,19.31
2023-05-14T13:45:14.551Z,19.27
2023-05-14T13:47:45.066Z,19.29
2023-05-14T13:50:15.500Z,19.24
2023-05-14T13:52:45.874Z,19.30
2023-05-14T13:55:17.504Z,19.27
2023-05-14T13:57:55.784Z,19.29
2023-05-14T14:00:30.874Z,19.21
2023-05-14T14:03:01.462Z,19.16
2023-05-14T14:05:33.156Z,19.18
2023-05-14T14:08:17.806Z,19.25
2023-05-14T14:10:54.642Z,19.44
2023-05-14T14:13:25.544Z,19.63
2023-05-14T14:16:03.260Z,19.90
2023-05-14T14:18:33.862Z,20.33
2023-05-14T14:21:04.400Z,20.90
2023-05-14T14:23:34.890Z,21.40
2023-05-14T14:26:05.334Z,21.84
2023-05-14T14:28:36.122Z,22.11
2023-05-14T14:31:09.290Z,22.46
2023-05-14T14:33:39.671Z,22.68
2023-05-14T14:36:11.473Z,23.03
2023-05-14T14:38:41.988Z,23.38
2023-05-14T14:41:12.849Z,23.60
2023-05-14T14:43:44.239Z,23.82
2023-05-14T14:46:17.190Z,24.08
2023-05-14T14:48:47.586Z,24.37
2023-05-14T14:51:18.287Z,24.54
2023-05-14T14:53:48.705Z,24.67
2023-05-14T14:56:19.134Z,24.85
2023-05-14T14:58:49.525Z,24.89
2023-05-14T15:01:23.153Z,24.87
2023-05-14T15:03:53.580Z,24.78
2023-05-14T15:06:24.050Z,24.36
2023-05-14T15:08:54.457Z,23.89
2023-05-14T15:11:24.921Z,23.29
2023-05-14T15:13:55.323Z,22.92
2023-05-14T15:16:28.406Z,22.55
2023-05-14T15:18:59.010Z,22.25
2023-05-14T15:21:29.624Z,21.96
2023-05-14T15:23:59.982Z,21.77
2023-05-14T15:26:30.528Z,21.54
2023-05-14T15:29:01.106Z,21.37
2023-05-14T15:31:34.247Z,21.17
2023-05-14T15:34:04.735Z,21.09
2023-05-14T15:36:35.081Z,20.98
2023-05-14T15:39:05.488Z,20.89
2023-05-14T15:41:36.236Z,20.86
2023-05-14T15:44:07.060Z,20.80
2023-05-14T15:46:40.363Z,20.76
2023-05-14T15:49:11.120Z,20.66
2023-05-14T15:51:41.693Z,20.61
2023-05-14T15:54:12.203Z,20.63
2023-05-14T15:56:42.669Z,20.72
2023-05-14T15:59:14.249Z,20.79
2023-05-14T16:01:47.443Z,21.06
2023-05-14T16:04:17.956Z,21.47
2023-05-14T16:06:48.773Z,21.86
2023-05-14T16:09:19.588Z,22.21
2023-05-14T16:11:50.055Z,22.43
2023-05-14T16:14:20.401Z,22.66
2023-05-14T16:16:53.592Z,22.86
2023-05-14T16:19:24.167Z,23.03
2023-05-14T16:21:54.710Z,23.29
2023-05-14T16:24:25.171Z,23.53
2023-05-14T16:26:56.057Z,23.64
2023-05-14T16:29:26.601Z,23.72
2023-05-14T16:31:59.819Z,23.82
2023-05-14T16:34:30.256Z,24.00
2023-05-14T16:37:02.155Z,24.07
2023-05-14T16:39:32.592Z,24.26
2023-05-14T16:42:02.970Z,24.38
2023-05-14T16:44:33.526Z,24.49
2023-05-14T16:47:06.912Z,24.40
2023-05-14T16:49:37.329Z,24.21
2023-05-14T16:52:09.283Z,24.12
2023-05-14T16:54:40.058Z,23.92
2023-05-14T16:57:10.489Z,23.71
2023-05-14T16:59:41.202Z,23.39
2023-05-14T17:02:14.860Z,23.09
2023-05-14T17:04:45.472Z,22.74
2023-05-14T17:07:16.173Z,22.38
2023-05-14T17:09:46.567Z,22.28
2023-05-14T17:12:17.081Z,22.09
2023-05-14T17:14:47.424Z,21.96
2023-05-14T17:17:20.756Z,21.76
2023-05-14T17:19:54.944Z,21.62
2023-05-14T17:22:25.693Z,21.44
2023-05-14T17:24:56.158Z,21.41
2023-05-14T17:27:26.795Z,21.51
2023-05-14T17:29:57.230Z,21.70
2023-05-14T17:32:30.593Z,21.71
2023-05-14T17:35:01.320Z,21.67
2023-05-14T17:37:32.374Z,21.69
2023-05-14T17:40:02.858Z,21.73
2023-05-14T17:42:33.596Z,21.64
2023-05-14T17:45:04.099Z,21.55
2023-05-14T17:47:37.262Z,21.46
2023-05-14T17:50:09.354Z,21.38
2023-05-14T17:52:42.218Z,21.32
2023-05-14T17:55:12.870Z,21.29
2023-05-14T17:57:44.339Z,21.33
2023-05-14T18:00:16.483Z,21.31
2023-05-14T18:02:49.465Z,21.20
2023-05-14T18:05:20.776Z,21.08
2023-05-14T18:07:53.051Z,20.96
2023-05-14T18:10:23.498Z,20.88
2023-05-14T18:12:53.892Z,20.80
2023-05-14T18:15:25.933Z,20.71
2023-05-14T18:17:59.159Z,20.62
2023-05-14T18:20:29.696Z,20.56
2023-05-14T18:23:00.179Z,20.50
2023-05-14T18:25:30.611Z,20.43
2023-05-14T18:28:01.021Z,20.40
2023-05-14T18:30:31.474Z,20.38
2023-05-14T18:33:04.757Z,20.32
2023-05-14T18:35:35.386Z,20.18
2023-05-14T18:38:08.122Z,20.02
2023-05-14T18:40:38.540Z,19.86
2023-05-14T18:43:09.254Z,19.74
2023-05-14T18:45:39.702Z,19.58
2023-05-14T18:48:12.991Z,19.50
2023-05-14T18:50:43.574Z,19.40
2023-05-14T18:53:14.056Z,19.33
2023-05-14T18:55:44.522Z,19.23
2023-05-14T18:58:15.064Z,19.14
2023-05-14T19:00:45.557Z,19.05
2023-05-14T19:03:20.022Z,18.96
2023-05-14T19:05:50.803Z,18.85
2023-05-14T19:08:21.331Z,18.82
2023-05-14T19:10:51.922Z,18.75
2023-05-14T19:13:22.407Z,18.67
2023-05-14T19:15:53.078Z,18.57
2023-05-14T19:18:26.385Z,18.52
2023-05-14T19:20:57.071Z,18.44
2023-05-14T19:23:27.515Z,18.38
2023-05-14T19:25:57.935Z,18.33
2023-05-14T19:28:28.542Z,18.27
2023-05-14T19:30:59.023Z,18.21
2023-05-14T19:33:32.384Z,18.14
2023-05-14T19:36:02.856Z,18.08
2023-05-14T19:38:33.266Z,18.02
2023-05-14T19:41:03.707Z,18.00
2023-05-14T19:43:34.113Z,17.95
2023-05-14T19:46:06.280Z,17.90
2023-05-14T19:48:39.702Z,17.86
2023-05-14T19:51:11.133Z,17.83
2023-05-14T19:53:41.932Z,17.80
2023-05-14T19:56:12.458Z,17.78
2023-05-14T19:58:42.885Z,17.74
2023-05-14T20:01:13.433Z,17.74
2023-05-14T20:03:47.085Z,17.68
2023-05-14T20:06:18.572Z,17.61
2023-05-14T20:08:49.197Z,17.56
2023-05-14T20:11:19.844Z,17.50
2023-05-14T20:13:50.553Z,17.46
2023-05-14T20:16:21.949Z,17.43
2023-05-14T20:18:56.699Z,17.39
2023-05-14T20:21:27.167Z,17.30
2023-05-14T20:23:57.760Z,17.23
2023-05-14T20:26:28.423Z,17.17
2023-05-14T20:28:58.980Z,17.09
2023-05-14T20:31:29.439Z,17.08
2023-05-14T20:34:02.584Z,17.02
2023-05-14T20:36:33.866Z,16.94
2023-05-14T20:39:06.225Z,16.89
2023-05-14T20:41:36.867Z,16.83
2023-05-14T20:44:07.600Z,16.77
2023-05-14T20:46:37.977Z,16.67
2023-05-14T20:49:11.454Z,16.50
2023-05-14T20:51:41.832Z,16.38
2023-05-14T20:54:12.204Z,16.29
2023-05-14T20:56:42.678Z,16.26
2023-05-14T20:59:13.122Z,16.11
2023-05-14T21:01:43.525Z,16.00
2023-05-14T21:04:16.658Z,15.95
2023-05-14T21:06:47.324Z,15.94
2023-05-14T21:09:17.923Z,15.86
2023-05-14T21:11:48.331Z,15.79
2023-05-14T21:14:18.945Z,15.69
2023-05-14T21:16:49.474Z,15.60
2023-05-14T21:19:22.573Z,15.57
2023-05-14T21:21:52.975Z,15.53
2023-05-14T21:24:23.279Z,15.49
2023-05-14T21:26:53.744Z,15.46
2023-05-14T21:29:24.580Z,15.46
2023-05-14T21:31:55.000Z,15.38
2023-05-14T21:34:29.116Z,15.31
2023-05-14T21:36:59.947Z,15.25
2023-05-14T21:39:30.244Z,15.25
2023-05-14T21:42:01.016Z,15.22
2023-05-14T21:44:31.468Z,15.13
2023-05-14T21:47:02.095Z,15.10
2023-05-14T21:49:35.741Z,15.06
2023-05-14T21:52:06.695Z,15.00
2023-05-14T21:54:37.426Z,14.98
2023-05-14T21:57:08.513Z,14.93
2023-05-14T21:59:39.913Z,14.84
2023-05-14T22:02:10.795Z,14.77
2023-05-14T22:04:44.018Z,14.71
2023-05-14T22:07:14.534Z,14.68
2023-05-14T22:09:45.050Z,14.61
2023-05-14T22:12:15.382Z,14.53
2023-05-14T22:14:45.743Z,14.47
2023-05-14T22:17:16.248Z,14.38
2023-05-14T22:19:49.181Z,14.35
2023-05-14T22:22:19.846Z,14.33
2023-05-14T22:24:50.279Z,14.28
2023-05-14T22:27:21.050Z,14.26
2023-05-14T22:29:51.654Z,14.27
2023-05-14T22:32:22.193Z,14.14
2023-05-14T22:34:55.313Z,14.15
2023-05-14T22:37:25.735Z,14.04
2023-05-14T22:39:56.152Z,14.01
2023-05-14T22:42:27.363Z,13.98
2023-05-14T22:44:58.430Z,14.00
2023-05-14T22:47:29.064Z,13.94
2023-05-14T22:50:02.121Z,13.91
2023-05-14T22:52:32.561Z,13.90
2023-05-14T22:55:03.715Z,13.85
2023-05-14T22:57:34.051Z,13.79
2023-05-14T23:00:04.740Z,13.74
2023-05-14T23:02:35.917Z,13.61
2023-05-14T23:05:10.630Z,13.60
2023-05-14T23:07:41.160Z,13.54
2023-05-14T23:10:13.440Z,13.39
2023-05-14T23:12:43.808Z,13.34
2023-05-14T23:15:14.589Z,13.34
2023-05-14T23:17:45.277Z,13.31
2023-05-14T23:20:18.740Z,13.32
2023-05-14T23:22:49.266Z,13.34
2023-05-14T23:25:19.709Z,13.28
2023-05-14T23:27:50.589Z,13.24
2023-05-14T23:30:21.252Z,13.21
2023-05-14T23:32:51.728Z,13.19
2023-05-14T23:35:25.164Z,13.18
2023-05-14T23:37:55.765Z,13.15
2023-05-14T23:40:26.066Z,13.10
2023-05-14T23:42:57.675Z,13.09
2023-05-14T23:45:28.069Z,13.06
2023-05-14T23:48:00.870Z,13.04
2023-05-14T23:50:34.101Z,13.04
2023-05-14T23:53:04.504Z,13.05
2023-05-14T23:55:34.936Z,12.97
2023-05-14T23:58:06.493Z,12.88
